Time;durP1;ratioP1;P1;durP2;ratioP2;P2;SDS_P1;SDS_P2;PMS_P1;PMS_P2;Temp;Humidity;BMP_temperature;BMP_pressure;BME280_temperature;BME280_humidity;BME280_pressure;Samples;Min_cycle;Max_cycle;Signal;HPM_P1;HPM_P2
2023/03/10 00:00:22;;;;;;;15.32;8.05;;;;;;;;;;5029925;28;20037;-78
2023/03/10 00:02:49;;;;;;;13.13;8.38;;;;;;;;;;5014726;28;20024;-78
2023/03/10 00:05:18;;;;;;;17.10;8.50;;;;;;;;;;5014534;28;20029;-78
2023/03/10 00:07:44;;;;;;;14.77;8.57;;;;;;;;;;5013496;28;20057;-77
2023/03/10 00:10:11;;;;;;;13.70;8.93;;;;;;;;;;5029436;28;20053;-78
2023/03/10 00:12:36;;;;;;;15.52;8.45;;;;;;;;;;5013567;28;20032;-78
2023/03/10 00:15:03;;;;;;;16.02;9.55;;;;;;;;;;5029936;28;20117;-79
2023/03/10 00:17:29;;;;;;;16.13;9.38;;;;;;;;;;5013389;28;20030;-79
2023/03/10 00:19:55;;;;;;;16.33;9.60;;;;;;;;;;5013337;28;20092;-79
2023/03/10 00:22:20;;;;;;;16.23;9.43;;;;;;;;;;5013233;28;20057;-79
2023/03/10 00:24:46;;;;;;;17.70;9.63;;;;;;;;;;5013042;28;20057;-78
2023/03/10 00:27:11;;;;;;;16.13;9.48;;;;;;;;;;5014415;28;20370;-78
2023/03/10 00:29:36;;;;;;;15.63;9.27;;;;;;;;;;5029371;28;20038;-79
2023/03/10 00:32:02;;;;;;;14.50;9.30;;;;;;;;;;5012953;28;20140;-78
2023/03/10 00:34:27;;;;;;;18.05;9.30;;;;;;;;;;5013045;28;20336;-78
2023/03/10 00:36:53;;;;;;;14.07;9.20;;;;;;;;;;5014086;28;20376;-78
2023/03/10 00:39:18;;;;;;;17.13;9.48;;;;;;;;;;5013930;28;20022;-79
2023/03/10 00:41:44;;;;;;;13.95;9.15;;;;;;;;;;5029503;28;20407;-78
2023/03/10 00:44:09;;;;;;;16.65;9.18;;;;;;;;;;5029335;28;20477;-77
2023/03/10 00:46:37;;;;;;;14.30;9.07;;;;;;;;;;5013068;28;20483;-79
2023/03/10 00:49:02;;;;;;;19.40;10.93;;;;;;;;;;5012972;28;20072;-78
2023/03/10 00:51:28;;;;;;;19.10;11.05;;;;;;;;;;5014012;28;20076;-79
2023/03/10 00:53:53;;;;;;;18.67;10.77;;;;;;;;;;5018005;28;20036;-78
2023/03/10 00:56:23;;;;;;;15.30;10.63;;;;;;;;;;5018139;28;20034;-78
2023/03/10 00:58:53;;;;;;;17.70;10.32;;;;;;;;;;5016825;28;20120;-79
2023/03/10 01:01:23;;;;;;;;;;;;;;;;;;5033630;28;20057;-78
2023/03/10 01:03:52;;;;;;;16.45;10.35;;;;;;;;;;5018027;28;20334;-77
2023/03/10 01:06:17;;;;;;;16.55;10.52;;;;;;;;;;5017121;28;20073;-78
2023/03/10 01:08:43;;;;;;;21.23;11.40;;;;;;;;;;5016894;28;20069;-78
2023/03/10 01:11:11;;;;;;;17.77;9.88;;;;;;;;;;5016797;28;20033;-78
2023/03/10 01:13:36;;;;;;;17.58;10.27;;;;;;;;;;5016595;28;20048;-78
2023/03/10 01:16:02;;;;;;;15.77;10.02;;;;;;;;;;5033153;28;20432;-78
2023/03/10 01:18:27;;;;;;;15.90;9.88;;;;;;;;;;5017995;28;20505;-78
2023/03/10 01:20:53;;;;;;;23.05;9.25;;;;;;;;;;5033028;28;20479;-79
2023/03/10 01:23:20;;;;;;;15.52;9.70;;;;;;;;;;5017575;28;20026;-78
2023/03/10 01:25:45;;;;;;;15.38;9.57;;;;;;;;;;5016334;28;20034;-79
2023/03/10 01:28:11;;;;;;;16.90;9.27;;;;;;;;;;5016665;28;20462;-78
2023/03/10 01:30:37;;;;;;;18.75;9.65;;;;;;;;;;5016284;28;20475;-78
2023/03/10 01:33:03;;;;;;;12.82;8.68;;;;;;;;;;5016385;28;20045;-78
2023/03/10 01:35:29;;;;;;;13.52;7.97;;;;;;;;;;5000092;28;20113;-79
2023/03/10 01:37:55;;;;;;;13.38;7.90;;;;;;;;;;5016133;28;20029;-79
2023/03/10 01:40:20;;;;;;;13.07;7.10;;;;;;;;;;5017364;28;20030;-79
2023/03/10 01:42:46;;;;;;;13.07;7.38;;;;;;;;;;5017351;28;20033;-79
2023/03/10 01:45:14;;;;;;;12.75;6.93;;;;;;;;;;5017109;28;20018;-79
2023/03/10 01:47:41;;;;;;;10.90;6.85;;;;;;;;;;5017249;28;20030;-78
2023/03/10 01:50:15;;;;;;;16.40;8.38;;;;;;;;;;5015859;28;20041;-78
2023/03/10 01:52:42;;;;;;;14.18;8.73;;;;;;;;;;5015882;28;20026;-79
2023/03/10 01:55:12;;;;;;;13.77;7.95;;;;;;;;;;5015926;28;20025;-78
2023/03/10 01:57:41;;;;;;;16.20;8.82;;;;;;;;;;4999670;28;20034;-78
2023/03/10 02:00:13;;;;;;;14.48;8.95;;;;;;;;;;5015831;28;20029;-78
2023/03/10 02:02:41;;;;;;;13.60;8.98;;;;;;;;;;5031094;28;20034;-78
2023/03/10 02:05:07;;;;;;;15.20;9.15;;;;;;;;;;5015707;28;20092;-78
2023/03/10 02:07:32;;;;;;;14.30;9.35;;;;;;;;;;5015572;28;20038;-79
2023/03/10 02:09:57;;;;;;;15.95;9.30;;;;;;;;;;5015476;28;20030;-79
2023/03/10 02:12:23;;;;;;;15.38;10.05;;;;;;;;;;5015543;28;20034;-78
2023/03/10 02:14:48;;;;;;;18.95;10.45;;;;;;;;;;5031888;28;20053;-79
2023/03/10 02:17:18;;;;;;;17.95;10.57;;;;;;;;;;5015611;28;20069;-78
2023/03/10 02:20:05;;;;;;;20.00;11.35;;;;;;;;;;4999227;28;20064;-78
2023/03/10 02:22:31;;;;;;;18.17;10.85;;;;;;;;;;5016809;28;20132;-78
2023/03/10 02:25:09;;;;;;;22.75;11.93;;;;;;;;;;5015298;28;20477;-78
2023/03/10 02:27:36;;;;;;;19.13;10.73;;;;;;;;;;5016408;28;20018;-78
2023/03/10 02:30:10;;;;;;;20.73;12.00;;;;;;;;;;5015100;28;20456;-78
2023/03/10 02:32:41;;;;;;;14.18;9.18;;;;;;;;;;5031463;28;20400;-78
2023/03/10 02:35:07;;;;;;;18.85;10.27;;;;;;;;;;5015110;28;20030;-79
2023/03/10 02:37:33;;;;;;;22.27;11.80;;;;;;;;;;5015129;28;20124;-78
2023/03/10 02:39:58;;;;;;;17.30;10.60;;;;;;;;;;5015021;28;20034;-78
2023/03/10 02:42:31;;;;;;;20.13;12.02;;;;;;;;;;5014941;28;20364;-78
2023/03/10 02:44:57;;;;;;;22.73;11.00;;;;;;;;;;5015158;28;20029;-78
2023/03/10 02:47:22;;;;;;;19.33;10.95;;;;;;;;;;5031569;28;20022;-78
2023/03/10 02:49:48;;;;;;;17.58;10.15;;;;;;;;;;5014624;28;20430;-78
2023/03/10 02:52:28;;;;;;;17.67;10.32;;;;;;;;;;5015311;28;20527;-78
2023/03/10 02:54:54;;;;;;;22.67;12.30;;;;;;;;;;5015011;28;20064;-78
2023/03/10 02:57:19;;;;;;;19.88;11.75;;;;;;;;;;5014741;28;20050;-78
2023/03/10 02:59:45;;;;;;;23.75;12.40;;;;;;;;;;5014605;28;20456;-78
2023/03/10 03:02:10;;;;;;;19.02;12.23;;;;;;;;;;5014577;28;20029;-79
2023/03/10 03:04:36;;;;;;;23.10;12.27;;;;;;;;;;5014304;28;20379;-78
2023/03/10 03:07:01;;;;;;;23.60;13.88;;;;;;;;;;5014455;28;20395;-78
2023/03/10 03:09:26;;;;;;;24.20;13.70;;;;;;;;;;5030853;28;20125;-78
2023/03/10 03:11:52;;;;;;;25.05;14.18;;;;;;;;;;5014312;28;20133;-78
2023/03/10 03:14:17;;;;;;;31.55;18.00;;;;;;;;;;5030154;28;20065;-78
2023/03/10 03:16:43;;;;;;;28.85;16.27;;;;;;;;;;5030953;28;20034;-78
2023/03/10 03:19:08;;;;;;;23.48;13.48;;;;;;;;;;5014003;28;20030;-78
2023/03/10 03:21:33;;;;;;;21.42;12.80;;;;;;;;;;5015440;28;20034;-78
2023/03/10 03:23:59;;;;;;;26.13;12.60;;;;;;;;;;5015340;28;20030;-78
2023/03/10 03:26:25;;;;;;;24.75;13.95;;;;;;;;;;5014073;28;20168;-78
2023/03/10 03:28:51;;;;;;;26.10;15.23;;;;;;;;;;5014088;28;20034;-79
2023/03/10 03:31:18;;;;;;;26.48;15.23;;;;;;;;;;5015056;28;20054;-79
2023/03/10 03:33:43;;;;;;;25.27;14.18;;;;;;;;;;5030156;28;20120;-78
2023/03/10 03:36:09;;;;;;;24.15;15.13;;;;;;;;;;5013996;28;20052;-79
2023/03/10 03:38:34;;;;;;;25.13;16.00;;;;;;;;;;5013820;28;20034;-78
2023/03/10 03:41:00;;;;;;;32.88;20.17;;;;;;;;;;5014070;28;20451;-78
2023/03/10 03:43:28;;;;;;;26.48;17.42;;;;;;;;;;5030284;28;20030;-78
2023/03/10 03:45:54;;;;;;;27.90;16.27;;;;;;;;;;5015065;28;20030;-78
2023/03/10 03:48:19;;;;;;;28.25;17.00;;;;;;;;;;5013583;28;20152;-78
2023/03/10 03:50:45;;;;;;;27.85;17.70;;;;;;;;;;5014955;28;20034;-78
2023/03/10 03:53:10;;;;;;;31.73;19.08;;;;;;;;;;5013857;28;20068;-78
2023/03/10 03:55:36;;;;;;;40.75;22.80;;;;;;;;;;5013606;28;20125;-79
2023/03/10 03:58:01;;;;;;;43.13;22.52;;;;;;;;;;5014844;28;20030;-78
2023/03/10 04:00:27;;;;;;;45.35;24.35;;;;;;;;;;5029956;28;20088;-78
2023/03/10 04:02:52;;;;;;;45.50;24.15;;;;;;;;;;5029671;28;20478;-78
2023/03/10 04:05:19;;;;;;;38.30;22.85;;;;;;;;;;5013924;28;20057;-78
2023/03/10 04:07:44;;;;;;;39.63;21.75;;;;;;;;;;5013873;28;20030;-79
2023/03/10 04:10:12;;;;;;;41.30;20.42;;;;;;;;;;4997236;28;20452;-78
2023/03/10 04:12:37;;;;;;;41.08;22.50;;;;;;;;;;5029703;28;20482;-79
2023/03/10 04:15:04;;;;;;;37.70;21.45;;;;;;;;;;5013242;28;20030;-78
2023/03/10 04:17:29;;;;;;;37.25;20.50;;;;;;;;;;4996789;28;20062;-78
2023/03/10 04:19:54;;;;;;;52.03;25.52;;;;;;;;;;5014369;28;20026;-79
2023/03/10 04:22:20;;;;;;;42.53;25.15;;;;;;;;;;5029793;28;20041;-79
2023/03/10 04:24:45;;;;;;;45.83;24.88;;;;;;;;;;5014507;28;20059;-78
2023/03/10 04:27:11;;;;;;;34.63;20.33;;;;;;;;;;5029411;28;20030;-78
2023/03/10 04:29:36;;;;;;;49.03;24.45;;;;;;;;;;5029549;28;20455;-78
2023/03/10 04:32:03;;;;;;;57.08;31.92;;;;;;;;;;5029460;28;20057;-78
2023/03/10 04:34:29;;;;;;;51.97;30.75;;;;;;;;;;5012995;28;20148;-78
2023/03/10 04:36:54;;;;;;;70.65;33.15;;;;;;;;;;5029564;28;20022;-78
2023/03/10 04:39:19;;;;;;;59.03;29.25;;;;;;;;;;5029404;28;20382;-78
2023/03/10 04:41:45;;;;;;;51.78;29.20;;;;;;;;;;5012856;28;20030;-78
2023/03/10 04:44:10;;;;;;;47.50;27.10;;;;;;;;;;4996729;28;20128;-78
2023/03/10 04:46:36;;;;;;;48.85;27.10;;;;;;;;;;5014906;28;20056;-78
2023/03/10 04:49:01;;;;;;;53.05;28.40;;;;;;;;;;5014294;28;20105;-78
2023/03/10 04:51:27;;;;;;;49.42;27.17;;;;;;;;;;5017789;28;20034;-78
2023/03/10 04:53:52;;;;;;;64.82;33.78;;;;;;;;;;5019677;28;20026;-78
2023/03/10 04:56:18;;;;;;;86.95;43.75;;;;;;;;;;5019223;28;20452;-79
2023/03/10 04:58:43;;;;;;;82.65;41.50;;;;;;;;;;5019765;28;20022;-78
2023/03/10 05:01:09;;;;;;;80.15;40.58;;;;;;;;;;5005224;28;20056;-78
2023/03/10 05:03:35;;;;;;;62.65;32.85;;;;;;;;;;5021816;28;20458;-78
2023/03/10 05:06:00;;;;;;;60.17;29.40;;;;;;;;;;5017321;28;20034;-78
2023/03/10 05:08:26;;;;;;;44.72;22.98;;;;;;;;;;5023261;28;20025;-78
2023/03/10 05:10:51;;;;;;;39.97;21.98;;;;;;;;;;4999491;28;20034;-79
2023/03/10 05:13:17;;;;;;;49.03;23.48;;;;;;;;;;4999896;28;20029;-80
2023/03/10 05:15:42;;;;;;;37.92;21.45;;;;;;;;;;5032571;28;20033;-80
2023/03/10 05:18:08;;;;;;;42.42;19.08;;;;;;;;;;5033482;28;20025;-80
2023/03/10 05:20:34;;;;;;;30.08;16.38;;;;;;;;;;5015930;28;20036;-79
2023/03/10 05:23:00;;;;;;;36.05;17.27;;;;;;;;;;5032206;28;20021;-80
2023/03/10 05:25:25;;;;;;;38.22;17.83;;;;;;;;;;5015864;28;20033;-79
2023/03/10 05:27:51;;;;;;;33.25;16.40;;;;;;;;;;5016028;28;20044;-79
2023/03/10 05:30:19;;;;;;;27.90;15.52;;;;;;;;;;5033356;28;20379;-83
2023/03/10 05:32:45;;;;;;;27.48;16.35;;;;;;;;;;5042962;28;20045;-81
2023/03/10 05:35:11;;;;;;;32.20;17.60;;;;;;;;;;5036456;28;20392;-87
2023/03/10 05:37:40;;;;;;;23.75;14.52;;;;;;;;;;5034391;28;20535;-85
2023/03/10 05:40:09;;;;;;;28.20;15.97;;;;;;;;;;5010635;28;20542;-84
2023/03/10 05:42:37;;;;;;;31.38;16.75;;;;;;;;;;5008896;28;20031;-84
2023/03/10 05:45:09;;;;;;;32.63;17.95;;;;;;;;;;5023341;28;20026;-84
2023/03/10 05:47:35;;;;;;;24.88;12.75;;;;;;;;;;5035632;28;20033;-85
2023/03/10 05:50:32;;;;;;;28.58;15.82;;;;;;;;;;4993845;28;20018;-87
2023/03/10 05:53:02;;;;;;;45.72;23.08;;;;;;;;;;5042547;28;20033;-84
2023/03/10 05:58:40;;;;;;;29.48;16.33;;;;;;;;;;5037233;28;20110;-85
2023/03/10 06:01:38;;;;;;;35.85;18.40;;;;;;;;;;5059073;28;20033;-86
2023/03/10 06:07:14;;;;;;;21.92;13.10;;;;;;;;;;5021637;28;20109;-86
2023/03/10 06:09:39;;;;;;;19.92;10.75;;;;;;;;;;5003642;28;20095;-85
2023/03/10 06:12:08;;;;;;;18.20;10.63;;;;;;;;;;5027419;28;20036;-86
2023/03/10 06:15:24;;;;;;;17.42;9.38;;;;;;;;;;5051221;28;20068;-85
2023/03/10 06:17:32;;;;;;;17.08;10.80;;;;;;;;;;5015845;28;20481;-84
2023/03/10 06:20:10;;;;;;;21.05;11.57;;;;;;;;;;5011318;28;20526;-85
2023/03/10 06:22:35;;;;;;;21.48;12.80;;;;;;;;;;5055482;28;20029;-84
2023/03/10 06:25:01;;;;;;;22.83;14.23;;;;;;;;;;5006931;28;20026;-85
2023/03/10 06:27:30;;;;;;;24.75;13.25;;;;;;;;;;5044565;28;20029;-85
2023/03/10 06:29:56;;;;;;;28.80;14.77;;;;;;;;;;5028410;28;20052;-85
2023/03/10 06:32:25;;;;;;;28.67;14.80;;;;;;;;;;5033968;28;20048;-86
2023/03/10 06:35:12;;;;;;;27.40;13.67;;;;;;;;;;5049889;28;20033;-86
2023/03/10 06:37:41;;;;;;;24.23;13.00;;;;;;;;;;5044897;28;20379;-85
2023/03/10 06:40:11;;;;;;;27.83;13.05;;;;;;;;;;5027317;28;20038;-85
2023/03/10 06:45:46;;;;;;;26.00;13.20;;;;;;;;;;5063533;28;19922;-85
2023/03/10 06:48:37;;;;;;;32.78;15.52;;;;;;;;;;5043504;28;20108;-87
2023/03/10 06:51:14;;;;;;;34.00;16.60;;;;;;;;;;5230380;22;20072;-85
2023/03/10 06:53:40;;;;;;;30.15;16.00;;;;;;;;;;5036339;28;20049;-86
2023/03/10 06:56:14;;;;;;;43.47;16.75;;;;;;;;;;5065002;28;20022;-86
2023/03/10 06:58:40;;;;;;;43.72;18.98;;;;;;;;;;5024217;28;20045;-86
2023/03/10 07:01:06;;;;;;;30.35;15.60;;;;;;;;;;5026260;22;20018;-86
2023/03/10 07:03:44;;;;;;;42.42;18.38;;;;;;;;;;5075464;28;20021;-86
2023/03/10 07:06:58;;;;;;;35.58;16.75;;;;;;;;;;5082511;28;20029;-83
2023/03/10 07:09:47;;;;;;;37.63;16.30;;;;;;;;;;5084359;28;20047;-85
2023/03/10 07:15:25;;;;;;;29.92;14.43;;;;;;;;;;5069240;28;20037;-86
2023/03/10 07:17:50;;;;;;;28.05;13.80;;;;;;;;;;5061007;28;20024;-86
2023/03/10 07:23:47;;;;;;;24.27;12.60;;;;;;;;;;5041171;28;20171;-87
2023/03/10 07:26:20;;;;;;;25.20;12.68;;;;;;;;;;5066567;28;20033;-85
2023/03/10 07:28:53;;;;;;;22.30;12.43;;;;;;;;;;5042285;28;20029;-87
2023/03/10 07:31:36;;;;;;;21.80;12.80;;;;;;;;;;5081093;28;20049;-85
2023/03/10 07:34:22;;;;;;;32.45;15.63;;;;;;;;;;5068628;28;20056;-87
2023/03/10 07:40:05;;;;;;;31.95;15.43;;;;;;;;;;5080270;22;20059;-85
2023/03/10 07:42:31;;;;;;;23.17;14.15;;;;;;;;;;5072271;28;20040;-84
2023/03/10 07:44:56;;;;;;;26.02;14.23;;;;;;;;;;5029050;28;20039;-86
2023/03/10 07:47:23;;;;;;;26.00;14.30;;;;;;;;;;5059175;28;20032;-86
2023/03/10 07:49:49;;;;;;;25.70;12.40;;;;;;;;;;5076873;28;20032;-85
2023/03/10 07:52:28;;;;;;;22.30;11.60;;;;;;;;;;5052232;28;20040;-84
2023/03/10 07:54:56;;;;;;;27.00;11.93;;;;;;;;;;5090949;28;20039;-85
2023/03/10 07:57:22;;;;;;;21.48;10.88;;;;;;;;;;5093856;28;20028;-86
2023/03/10 07:59:47;;;;;;;18.70;10.60;;;;;;;;;;5075065;28;20028;-86
2023/03/10 08:02:19;;;;;;;22.20;11.70;;;;;;;;;;5061031;28;20479;-85
2023/03/10 08:04:47;;;;;;;20.55;11.40;;;;;;;;;;5047555;28;20048;-80
2023/03/10 08:07:13;;;;;;;22.20;11.85;;;;;;;;;;5088507;28;20058;-81
2023/03/10 08:09:45;;;;;;;21.38;12.18;;;;;;;;;;5087305;28;20037;-79
2023/03/10 08:12:10;;;;;;;26.45;13.10;;;;;;;;;;5085713;28;20434;-80
2023/03/10 08:14:35;;;;;;;24.63;13.48;;;;;;;;;;5081507;28;20031;-81
2023/03/10 08:17:06;;;;;;;26.10;12.38;;;;;;;;;;5091368;28;20040;-81
2023/03/10 08:19:38;;;;;;;22.77;11.77;;;;;;;;;;5083998;28;20041;-81
2023/03/10 08:22:04;;;;;;;23.92;11.82;;;;;;;;;;5090113;28;20089;-80
2023/03/10 08:24:30;;;;;;;24.80;11.93;;;;;;;;;;5091284;28;20422;-80
2023/03/10 08:26:55;;;;;;;25.08;12.45;;;;;;;;;;5088079;28;20032;-80
2023/03/10 08:32:05;;;;;;;26.15;12.30;;;;;;;;;;5075501;28;20047;-79
2023/03/10 08:34:32;;;;;;;23.25;11.88;;;;;;;;;;5066663;28;20032;-79
2023/03/10 08:36:59;;;;;;;20.73;11.20;;;;;;;;;;5070816;28;20036;-79
2023/03/10 08:39:25;;;;;;;23.05;11.40;;;;;;;;;;5064392;28;20044;-80
2023/03/10 08:41:51;;;;;;;19.85;10.88;;;;;;;;;;5072356;28;20032;-79
2023/03/10 08:44:17;;;;;;;51.50;14.63;;;;;;;;;;5071928;28;20021;-80
2023/03/10 08:46:43;;;;;;;33.65;13.18;;;;;;;;;;5066868;28;20032;-81
2023/03/10 08:49:09;;;;;;;27.15;13.45;;;;;;;;;;5070998;28;20021;-80
2023/03/10 08:51:34;;;;;;;22.27;11.55;;;;;;;;;;5071884;28;20358;-81
2023/03/10 08:54:00;;;;;;;20.70;11.48;;;;;;;;;;5072727;28;20043;-81
2023/03/10 08:56:33;;;;;;;30.23;12.38;;;;;;;;;;5071678;28;20434;-80
2023/03/10 08:58:59;;;;;;;22.77;10.65;;;;;;;;;;5062915;28;20033;-81
2023/03/10 09:01:26;;;;;;;16.20;9.80;;;;;;;;;;5070280;28;20093;-80
2023/03/10 09:03:52;;;;;;;21.30;9.57;;;;;;;;;;5054627;28;20024;-80
2023/03/10 09:06:18;;;;;;;19.58;8.85;;;;;;;;;;5071101;28;20033;-80
2023/03/10 09:08:44;;;;;;;17.58;8.82;;;;;;;;;;5059915;28;20033;-81
2023/03/10 09:11:13;;;;;;;15.93;8.70;;;;;;;;;;5081310;28;20099;-80
2023/03/10 09:13:39;;;;;;;20.92;9.18;;;;;;;;;;5091779;28;20100;-80
2023/03/10 09:16:04;;;;;;;17.25;8.45;;;;;;;;;;5078859;28;20453;-80
2023/03/10 09:18:30;;;;;;;15.68;8.52;;;;;;;;;;5074241;28;20020;-80
2023/03/10 09:20:55;;;;;;;13.13;7.97;;;;;;;;;;5089094;28;20081;-81
2023/03/10 09:23:21;;;;;;;19.20;8.00;;;;;;;;;;5094618;28;20438;-80
2023/03/10 09:25:46;;;;;;;14.52;8.63;;;;;;;;;;5092001;28;20031;-80
2023/03/10 09:28:12;;;;;;;17.15;8.52;;;;;;;;;;5075448;28;20105;-80
2023/03/10 09:30:40;;;;;;;21.23;9.02;;;;;;;;;;5074182;28;20369;-80
2023/03/10 09:33:06;;;;;;;17.00;8.38;;;;;;;;;;5074495;28;20071;-79
2023/03/10 09:35:34;;;;;;;16.02;7.78;;;;;;;;;;5084088;28;20075;-79
2023/03/10 09:38:00;;;;;;;16.40;8.45;;;;;;;;;;5075817;28;20037;-78
2023/03/10 09:40:26;;;;;;;17.85;9.15;;;;;;;;;;5078667;28;20085;-80
2023/03/10 09:43:04;;;;;;;15.45;8.70;;;;;;;;;;5077840;28;20028;-78
2023/03/10 09:46:03;;;;;;;18.35;9.27;;;;;;;;;;5092424;28;20484;-79
2023/03/10 09:48:50;;;;;;;17.33;9.40;;;;;;;;;;5065280;28;20044;-79
2023/03/10 09:51:20;;;;;;;20.67;9.70;;;;;;;;;;5060961;28;20347;-81
2023/03/10 09:53:56;;;;;;;16.73;9.65;;;;;;;;;;5063075;28;20040;-80
2023/03/10 09:56:50;;;;;;;16.45;9.30;;;;;;;;;;5072467;28;20047;-80
2023/03/10 09:59:34;;;;;;;19.15;9.20;;;;;;;;;;5067523;28;20250;-81
2023/03/10 10:02:00;;;;;;;17.08;8.25;;;;;;;;;;5067812;28;20369;-80
2023/03/10 10:04:28;;;;;;;20.33;10.52;;;;;;;;;;5078379;28;20186;-80
2023/03/10 10:06:54;;;;;;;18.00;9.60;;;;;;;;;;5075491;28;20082;-80
2023/03/10 10:09:42;;;;;;;20.08;10.50;;;;;;;;;;5073687;28;20527;-79
2023/03/10 10:12:42;;;;;;;26.75;9.93;;;;;;;;;;5084504;28;20126;-78
2023/03/10 10:15:17;;;;;;;17.83;10.63;;;;;;;;;;5083794;28;20036;-78
2023/03/10 10:18:08;;;;;;;18.52;9.00;;;;;;;;;;5056810;28;20040;-78
2023/03/10 10:21:08;;;;;;;21.17;10.52;;;;;;;;;;5066013;28;20124;-80
2023/03/10 10:23:51;;;;;;;21.92;11.48;;;;;;;;;;5082554;28;20127;-80
2023/03/10 10:26:18;;;;;;;23.80;12.23;;;;;;;;;;5064228;28;20028;-78
2023/03/10 10:28:49;;;;;;;22.85;11.32;;;;;;;;;;5057208;28;20043;-78
2023/03/10 10:31:17;;;;;;;19.15;10.68;;;;;;;;;;5060993;28;20043;-78
2023/03/10 10:34:17;;;;;;;23.80;11.10;;;;;;;;;;5076016;28;20021;-78
2023/03/10 10:36:54;;;;;;;19.42;10.15;;;;;;;;;;5074847;28;20040;-79
2023/03/10 10:39:24;;;;;;;17.10;8.50;;;;;;;;;;5080986;28;20071;-78
2023/03/10 10:41:50;;;;;;;31.02;11.40;;;;;;;;;;5078847;28;20111;-80
2023/03/10 10:44:16;;;;;;;23.70;11.35;;;;;;;;;;5056775;28;20079;-77
2023/03/10 10:46:52;;;;;;;25.65;12.15;;;;;;;;;;5076893;28;20028;-79
2023/03/10 10:49:22;;;;;;;21.85;10.35;;;;;;;;;;5075861;28;20035;-80
2023/03/10 10:51:58;;;;;;;17.60;9.82;;;;;;;;;;5081144;28;20077;-79
2023/03/10 10:54:33;;;;;;;20.50;9.95;;;;;;;;;;5076115;28;20048;-78
2023/03/10 10:56:59;;;;;;;15.68;8.63;;;;;;;;;;5058360;28;20056;-80
2023/03/10 10:59:33;;;;;;;17.48;8.48;;;;;;;;;;5073857;28;20032;-80
2023/03/10 11:02:00;;;;;;;13.85;7.65;;;;;;;;;;5073195;28;20035;-80
2023/03/10 11:04:27;;;;;;;15.70;7.50;;;;;;;;;;5093829;28;20610;-79
2023/03/10 11:07:09;;;;;;;25.55;8.18;;;;;;;;;;5074340;28;20377;-79
2023/03/10 11:09:37;;;;;;;14.18;7.45;;;;;;;;;;5091177;28;20047;-80
2023/03/10 11:12:11;;;;;;;17.83;7.68;;;;;;;;;;5086945;28;20441;-79
2023/03/10 11:14:51;;;;;;;15.88;7.47;;;;;;;;;;5083316;28;20032;-81
2023/03/10 11:17:50;;;;;;;20.70;10.40;;;;;;;;;;5083838;28;20041;-80
2023/03/10 11:20:27;;;;;;;15.93;8.63;;;;;;;;;;5095645;28;20148;-79
2023/03/10 11:23:02;;;;;;;21.58;9.18;;;;;;;;;;5073086;28;20024;-77
2023/03/10 11:26:14;;;;;;;22.77;9.32;;;;;;;;;;5091275;28;20028;-79
2023/03/10 11:28:59;;;;;;;23.30;10.43;;;;;;;;;;5037671;28;20516;-78
2023/03/10 11:31:32;;;;;;;24.92;12.07;;;;;;;;;;5038618;28;20043;-78
2023/03/10 11:34:16;;;;;;;18.90;10.63;;;;;;;;;;5081753;28;20039;-79
2023/03/10 11:37:02;;;;;;;25.77;12.75;;;;;;;;;;5066372;28;20027;-79
2023/03/10 11:39:31;;;;;;;26.45;13.13;;;;;;;;;;5092948;28;20044;-79
2023/03/10 11:42:47;;;;;;;23.90;11.73;;;;;;;;;;5093107;28;20024;-80
2023/03/10 11:45:45;;;;;;;17.90;9.88;;;;;;;;;;5065970;28;20048;-78
2023/03/10 11:48:32;;;;;;;19.83;10.20;;;;;;;;;;5067775;28;20040;-80
2023/03/10 11:51:07;;;;;;;21.20;11.05;;;;;;;;;;5066244;28;20036;-79
2023/03/10 11:53:44;;;;;;;25.92;10.40;;;;;;;;;;5071157;28;20032;-79
2023/03/10 11:56:13;;;;;;;21.45;11.45;;;;;;;;;;5068576;28;20056;-79
2023/03/10 11:59:23;;;;;;;48.10;20.07;;;;;;;;;;5074285;28;20115;-80
2023/03/10 12:02:10;;;;;;;71.50;31.55;;;;;;;;;;4975251;28;20623;-80
2023/03/10 12:04:52;;;;;;;63.08;28.52;;;;;;;;;;5068556;28;20040;-79
2023/03/10 12:07:39;;;;;;;67.70;26.98;;;;;;;;;;5042522;28;20040;-81
2023/03/10 12:10:11;;;;;;;59.08;23.95;;;;;;;;;;5086772;28;20115;-79
2023/03/10 12:12:43;;;;;;;44.92;21.30;;;;;;;;;;5089839;28;20070;-79
2023/03/10 12:15:12;;;;;;;53.55;24.83;;;;;;;;;;5058340;28;20487;-78
2023/03/10 12:17:38;;;;;;;195.38;96.40;;;;;;;;;;5074279;28;20488;-80
2023/03/10 12:20:13;;;;;;;73.15;33.70;;;;;;;;;;5041008;28;20045;-80
2023/03/10 12:22:45;;;;;;;64.57;28.65;;;;;;;;;;5067688;28;20433;-78
2023/03/10 12:25:29;;;;;;;75.85;32.42;;;;;;;;;;5047777;28;20092;-77
2023/03/10 12:28:16;;;;;;;74.55;34.90;;;;;;;;;;5062667;28;20123;-80
2023/03/10 12:30:47;;;;;;;70.85;31.55;;;;;;;;;;5064518;28;20098;-80
2023/03/10 12:33:36;;;;;;;63.20;32.22;;;;;;;;;;5056896;28;20017;-78
2023/03/10 12:36:31;;;;;;;91.38;43.47;;;;;;;;;;5063670;28;20043;-79
2023/03/10 12:39:18;;;;;;;82.75;41.33;;;;;;;;;;5065236;28;20525;-79
2023/03/10 12:41:46;;;;;;;72.00;35.67;;;;;;;;;;5061376;28;20029;-79
2023/03/10 12:44:48;;;;;;;70.05;36.60;;;;;;;;;;5069954;28;20115;-80
2023/03/10 12:47:19;;;;;;;61.90;28.95;;;;;;;;;;5065878;28;20093;-80
2023/03/10 12:49:59;;;;;;;;;;;;;;;;;;5071386;28;20149;-79
2023/03/10 12:52:37;;;;;;;62.50;24.15;;;;;;;;;;5069007;28;19977;-79
2023/03/10 12:55:14;;;;;;;56.95;25.42;;;;;;;;;;5051781;28;20029;-80
2023/03/10 12:57:40;;;;;;;87.47;43.05;;;;;;;;;;5051570;28;20028;-78
2023/03/10 13:00:24;;;;;;;56.47;21.85;;;;;;;;;;5070034;28;20021;-79
2023/03/10 13:02:53;;;;;;;53.90;25.60;;;;;;;;;;5070423;28;20043;-79
2023/03/10 13:05:34;;;;;;;59.17;30.75;;;;;;;;;;5049978;28;20041;-78
2023/03/10 13:08:23;;;;;;;51.17;24.50;;;;;;;;;;5051940;28;20443;-78
2023/03/10 13:10:53;;;;;;;50.60;23.13;;;;;;;;;;5054224;28;20505;-78
2023/03/10 13:13:18;;;;;;;;;;;;;;;;;;5036354;28;20370;-78
2023/03/10 13:15:55;;;;;;;60.95;27.38;;;;;;;;;;5053702;28;19909;-77
2023/03/10 13:18:21;;;;;;;44.88;23.23;;;;;;;;;;5037277;28;20063;-77
2023/03/10 13:20:46;;;;;;;56.67;26.70;;;;;;;;;;5036209;28;20057;-76
2023/03/10 13:23:38;;;;;;;63.20;28.13;;;;;;;;;;5052406;28;20052;-76
2023/03/10 13:26:08;;;;;;;58.28;28.42;;;;;;;;;;5053090;28;20033;-78
2023/03/10 13:28:34;;;;;;;56.08;27.25;;;;;;;;;;5052698;28;20099;-77
2023/03/10 13:31:13;;;;;;;49.95;26.17;;;;;;;;;;5051962;28;20391;-73
2023/03/10 13:33:39;;;;;;;54.65;26.20;;;;;;;;;;5053322;28;20431;-77
2023/03/10 13:36:33;;;;;;;46.75;24.13;;;;;;;;;;5052304;28;20101;-75
2023/03/10 13:39:00;;;;;;;61.03;28.73;;;;;;;;;;5052890;28;20540;-76
2023/03/10 13:41:26;;;;;;;52.95;28.38;;;;;;;;;;5035428;28;20032;-76
2023/03/10 13:43:52;;;;;;;47.25;24.55;;;;;;;;;;5052453;28;20127;-76
2023/03/10 13:46:18;;;;;;;51.80;26.30;;;;;;;;;;5035548;28;20374;-76
2023/03/10 13:48:45;;;;;;;49.70;25.88;;;;;;;;;;5052064;28;20090;-77
2023/03/10 13:51:13;;;;;;;51.60;26.05;;;;;;;;;;5018924;28;20370;-76
2023/03/10 13:53:38;;;;;;;47.78;24.83;;;;;;;;;;5053491;28;20037;-76
2023/03/10 13:56:23;;;;;;;49.72;21.70;;;;;;;;;;5051845;28;20443;-76
2023/03/10 13:58:49;;;;;;;38.10;20.42;;;;;;;;;;5053629;28;20496;-77
2023/03/10 14:01:23;;;;;;;31.05;18.10;;;;;;;;;;5022940;28;20036;-75
2023/03/10 14:04:00;;;;;;;33.40;18.25;;;;;;;;;;5022663;28;20037;-76
2023/03/10 14:06:27;;;;;;;30.30;16.50;;;;;;;;;;5055683;28;20021;-75
2023/03/10 14:08:52;;;;;;;30.00;16.42;;;;;;;;;;5039264;28;20021;-76
2023/03/10 14:11:23;;;;;;;29.67;15.23;;;;;;;;;;5055452;28;20036;-75
2023/03/10 14:13:48;;;;;;;29.45;15.45;;;;;;;;;;5039155;28;20044;-77
2023/03/10 14:16:14;;;;;;;59.78;23.98;;;;;;;;;;5056041;28;20443;-76
2023/03/10 14:18:40;;;;;;;33.33;17.00;;;;;;;;;;5071847;28;20021;-76
2023/03/10 14:21:38;;;;;;;32.30;17.52;;;;;;;;;;5022518;28;20024;-77
2023/03/10 14:24:09;;;;;;;27.65;16.17;;;;;;;;;;5027215;28;20060;-76
2023/03/10 14:26:37;;;;;;;37.90;20.10;;;;;;;;;;5038965;28;20031;-77
2023/03/10 14:29:05;;;;;;;29.85;18.30;;;;;;;;;;5022164;28;20087;-76
2023/03/10 14:31:30;;;;;;;38.53;21.17;;;;;;;;;;5038667;28;20067;-77
2023/03/10 14:33:56;;;;;;;36.05;17.88;;;;;;;;;;5055220;28;20041;-77
2023/03/10 14:36:23;;;;;;;50.05;27.02;;;;;;;;;;5038669;28;20083;-76
2023/03/10 14:38:49;;;;;;;35.97;19.70;;;;;;;;;;5055969;28;20076;-77
2023/03/10 14:41:14;;;;;;;33.20;18.77;;;;;;;;;;5038001;28;20450;-76
2023/03/10 14:43:40;;;;;;;34.10;18.27;;;;;;;;;;5038008;28;20025;-77
2023/03/10 14:46:06;;;;;;;33.05;17.52;;;;;;;;;;5038383;28;20033;-76
2023/03/10 14:48:36;;;;;;;34.20;16.70;;;;;;;;;;5054714;28;20028;-77
2023/03/10 14:51:02;;;;;;;32.60;17.67;;;;;;;;;;5054665;28;20090;-77
2023/03/10 14:53:29;;;;;;;32.28;18.42;;;;;;;;;;5055641;28;20450;-77
2023/03/10 14:55:56;;;;;;;36.13;21.58;;;;;;;;;;5038594;28;20021;-77
2023/03/10 14:58:32;;;;;;;38.70;19.02;;;;;;;;;;5038554;28;20082;-77
2023/03/10 15:00:58;;;;;;;37.88;18.83;;;;;;;;;;5055800;28;20029;-77
2023/03/10 15:03:23;;;;;;;36.90;20.98;;;;;;;;;;5037821;28;20024;-77